Map

Track Data

SID SEASON NUMBER BASIN SUBBASIN NAME ISO_TIME NATURE LAT LON WMO_WIND WMO_PRES WMO_AGENCY TRACK_TYPE DIST2LAND LANDFALL IFLAG USA_AGENCY USA_ATCF_ID USA_LAT USA_LON USA_RECORD USA_STATUS USA_WIND USA_PRES USA_SSHS USA_R34_NE USA_R34_SE USA_R34_SW USA_R34_NW USA_R50_NE USA_R50_SE USA_R50_SW USA_R50_NW USA_R64_NE USA_R64_SE USA_R64_SW USA_R64_NW USA_POCI USA_ROCI USA_RMW USA_EYE TOKYO_LAT TOKYO_LON TOKYO_GRADE TOKYO_WIND TOKYO_PRES TOKYO_R50_DIR TOKYO_R50_LONG TOKYO_R50_SHORT TOKYO_R30_DIR TOKYO_R30_LONG TOKYO_R30_SHORT TOKYO_LAND CMA_LAT CMA_LON CMA_CAT CMA_WIND CMA_PRES HKO_LAT HKO_LON HKO_CAT HKO_WIND HKO_PRES NEWDELHI_LAT NEWDELHI_LON NEWDELHI_GRADE NEWDELHI_WIND NEWDELHI_PRES NEWDELHI_CI NEWDELHI_DP NEWDELHI_POCI REUNION_LAT REUNION_LON REUNION_TYPE REUNION_WIND REUNION_PRES REUNION_TNUM REUNION_CI REUNION_RMW REUNION_R34_NE REUNION_R34_SE REUNION_R34_SW REUNION_R34_NW REUNION_R50_NE REUNION_R50_SE REUNION_R50_SW REUNION_R50_NW REUNION_R64_NE REUNION_R64_SE REUNION_R64_SW REUNION_R64_NW BOM_LAT BOM_LON BOM_TYPE BOM_WIND BOM_PRES BOM_TNUM BOM_CI BOM_RMW BOM_R34_NE BOM_R34_SE BOM_R34_SW BOM_R34_NW BOM_R50_NE BOM_R50_SE BOM_R50_SW BOM_R50_NW BOM_R64_NE BOM_R64_SE BOM_R64_SW BOM_R64_NW BOM_ROCI BOM_POCI BOM_EYE BOM_POS_METHOD BOM_PRES_METHOD NADI_LAT NADI_LON NADI_CAT NADI_WIND NADI_PRES WELLINGTON_LAT WELLINGTON_LON WELLINGTON_WIND WELLINGTON_PRES DS824_LAT DS824_LON DS824_STAGE DS824_WIND DS824_PRES TD9636_LAT TD9636_LON TD9636_STAGE TD9636_WIND TD9636_PRES TD9635_LAT TD9635_LON TD9635_WIND TD9635_PRES TD9635_ROCI NEUMANN_LAT NEUMANN_LON NEUMANN_CLASS NEUMANN_WIND NEUMANN_PRES MLC_LAT MLC_LON MLC_CLASS MLC_WIND MLC_PRES USA_GUST BOM_GUST BOM_GUST_PER REUNION_GUST REUNION_GUST_PER USA_SEAHGT USA_SEARAD_NE USA_SEARAD_SE USA_SEARAD_SW USA_SEARAD_NW STORM_SPEED STORM_DIR
2011103S13125 2011 22 SI WA ERROL 2011-04-13 06:00:00 NR -12.5000 125.300 main 188 184 O_____________ jtwc_sh SH212011 -12.5000 125.300 DB 15 1010 -3 3 69
2011103S13125 2011 22 SI WA ERROL 2011-04-13 09:00:00 NR -12.4425 125.458 main 190 187 P_____________ SH212011 -12.4425 125.458 DB 17 1008 -3 3 71
2011103S13125 2011 22 SI WA ERROL 2011-04-13 12:00:00 NR -12.4000 125.600 main 187 184 O_____________ jtwc_sh SH212011 -12.4000 125.600 DB 20 1007 -3 3 77
2011103S13125 2011 22 SI WA ERROL 2011-04-13 15:00:00 NR -12.3850 125.715 main 184 182 P_____________ SH212011 -12.3850 125.715 DB 22 1005 -3 2 90
2011103S13125 2011 22 SI WA ERROL 2011-04-13 18:00:00 TS -12.4000 125.800 main 182 182 O_____________ jtwc_sh SH212011 -12.4000 125.800 TD 25 1004 -1 1 116
2011103S13125 2011 22 SI WA ERROL 2011-04-13 21:00:00 TS -12.4500 125.850 main 180 169 P_____________ SH212011 -12.4500 125.850 TD 27 1002 -1 1 137
2011103S13125 2011 22 SI WA ERROL 2011-04-14 00:00:00 TS -12.5000 125.900 main 169 168 O_____________ jtwc_sh SH212011 -12.5000 125.900 TD 30 1000 -1 2 103
2011103S13125 2011 22 SI WA ERROL 2011-04-14 03:00:00 TS -12.4850 126.000 main 168 167 P_____________ SH212011 -12.4850 126.000 TD 30 1000 -1 2 90
2011103S13125 2011 22 SI WA ERROL 2011-04-14 06:00:00 TS -12.5000 126.100 main 167 154 O_____________ jtwc_sh SH212011 -12.5000 126.100 TD 30 1000 -1 1008 150 45 2 131
2011103S13125 2011 22 SI WA ERROL 2011-04-14 09:00:00 TS -12.6275 126.165 main 154 134 P_____________ SH212011 -12.6275 126.165 TD 30 1000 -1 1008 150 45 3 163
2011103S13125 2011 22 SI WA ERROL 2011-04-14 12:00:00 TS -12.8000 126.200 main 134 112 O_____________ jtwc_sh SH212011 -12.8000 126.200 TD 30 1000 -1 1008 150 45 4 171
2011103S13125 2011 22 SI WA ERROL 2011-04-14 15:00:00 TS -12.9875 126.215 main 112 101 P_____________ SH212011 -12.9875 126.215 TD 32 998 -1 1008 150 45 3 0
2011103S13125 2011 22 SI WA ERROL 2011-04-14 18:00:00 TS -13.1000 126.200 main 101 101 O_____________ jtwc_sh SH212011 -13.1000 126.200 TS 35 996 0 1008 150 45 1 231
2011103S13125 2011 22 SI WA ERROL 2011-04-14 21:00:00 TS -13.0375 126.157 main 112 111 P_____________ SH212011 -13.0375 126.157 TS 37 994 0 1008 150 40 2 333
2011103S13125 2011 22 SI WA ERROL 2011-04-15 00:00:00 TS -12.9000 126.100 main 123 123 O_____________ jtwc_sh SH212011 -12.9000 126.100 TS 40 993 0 50 50 45 40 1008 150 35 2 336
2011103S13125 2011 22 SI WA ERROL 2011-04-15 03:00:00 TS -12.8150 126.058 main 134 134 P_____________ SH212011 -12.8150 126.058 TS 40 993 0 52 50 47 40 1008 137 32 2 333
2011103S13125 2011 22 SI WA ERROL 2011-04-15 06:00:00 TS -12.7000 126.000 main 145 145 O_____________ jtwc_sh SH212011 -12.7000 126.000 TS 40 993 0 55 50 50 40 1008 125 30 3 337
2011103S13125 2011 22 SI WA ERROL 2011-04-15 09:00:00 TS -12.5075 125.923 main 169 169 P_____________ SH212011 -12.5075 125.923 TS 42 991 0 52 50 52 47 1007 117 27 4 334
2011103S13125 2011 22 SI WA ERROL 2011-04-15 12:00:00 TS -12.3000 125.800 main 193 193 O_____________ jtwc_sh SH212011 -12.3000 125.800 TS 45 989 0 50 50 55 55 1006 110 25 5 320
2011103S13125 2011 22 SI WA ERROL 2011-04-15 15:00:00 TS -12.1425 125.608 main 219 219 P_____________ SH212011 -12.1425 125.608 TS 45 989 0 50 50 55 55 1006 110 25 5 308
2011103S13125 2011 22 SI WA ERROL 2011-04-15 18:00:00 TS -12.0000 125.400 main 234 219 O_____________ jtwc_sh SH212011 -12.0000 125.400 TS 45 989 0 50 50 55 55 1006 110 25 5 309
2011103S13125 2011 22 SI WA ERROL 2011-04-15 21:00:00 TS -11.8500 125.243 main 205 190 P_____________ SH212011 -11.8500 125.243 TS 47 987 0 52 50 57 57 1006 115 25 4 316
2011103S13125 2011 22 SI WA ERROL 2011-04-16 00:00:00 TS -11.7000 125.100 main 190 173 O_____________ jtwc_sh SH212011 -11.7000 125.100 TS 50 985 0 55 50 60 60 1006 120 25 4 314
2011103S13125 2011 22 SI WA ERROL 2011-04-16 03:00:00 TS -11.5425 124.920 main 162 149 P_____________ SH212011 -11.5425 124.920 TS 50 986 0 52 50 60 60 1006 115 27 4 316
2011103S13125 2011 22 SI WA ERROL 2011-04-16 06:00:00 TS -11.4000 124.800 main 149 138 O_____________ jtwc_sh SH212011 -11.4000 124.800 TS 50 987 0 50 50 60 60 1007 110 30 3 338
2011103S13125 2011 22 SI WA ERROL 2011-04-16 09:00:00 TS -11.2775 124.813 main 138 127 P_____________ SH212011 -11.2775 124.813 TS 52 984 0 50 50 60 60 1007 115 27 2 27
2011103S13125 2011 22 SI WA ERROL 2011-04-16 12:00:00 TS -11.2000 124.900 main 130 130 O_____________ jtwc_sh SH212011 -11.2000 124.900 TS 55 982 0 50 50 60 60 25 25 25 25 1007 120 25 2 67
2011103S13125 2011 22 SI WA ERROL 2011-04-16 15:00:00 TS -11.2000 125.000 main 134 134 P_____________ SH212011 -11.2000 125.000 TS 52 983 0 60 60 62 60 1007 115 25 2 90
2011103S13125 2011 22 SI WA ERROL 2011-04-16 18:00:00 TS -11.2000 125.100 main 139 139 O_____________ jtwc_sh SH212011 -11.2000 125.100 TS 50 985 0 70 70 65 60 1007 110 25 2 71
2011103S13125 2011 22 SI WA ERROL 2011-04-16 21:00:00 TS -11.1450 125.165 main 135 126 P_____________ SH212011 -11.1450 125.165 TS 47 987 0 57 55 52 45 1007 110 25 2 27
2011103S13125 2011 22 SI WA ERROL 2011-04-17 00:00:00 TS -11.0000 125.200 main 126 101 O_____________ jtwc_sh SH212011 -11.0000 125.200 TS 45 989 0 45 40 40 30 1007 110 25 4 8
2011103S13125 2011 22 SI WA ERROL 2011-04-17 03:00:00 TS -10.7075 125.230 main 101 78 P_____________ SH212011 -10.7075 125.230 TS 42 991 0 45 40 40 30 1008 130 25 6 1
2011103S13125 2011 22 SI WA ERROL 2011-04-17 06:00:00 TS -10.4000 125.200 main 78 55 O_____________ jtwc_sh SH212011 -10.4000 125.200 TS 40 993 0 45 40 40 30 1009 150 25 5 342
2011103S13125 2011 22 SI WA ERROL 2011-04-17 09:00:00 TS -10.2200 125.072 main 55 31 P_____________ SH212011 -10.2200 125.072 TS 37 994 0 45 40 40 30 1009 150 25 4 316
2011103S13125 2011 22 SI WA ERROL 2011-04-17 12:00:00 TS -10.1000 124.900 main 31 15 O_____________ jtwc_sh SH212011 -10.1000 124.900 TS 35 996 0 45 40 40 30 1009 150 25 4 306
2011103S13125 2011 22 SI WA ERROL 2011-04-17 15:00:00 TS -9.99248 124.758 main 15 0 P_____________ SH212011 -9.99248 124.758 TS 35 996 0 37 35 35 30 1009 142 22 4 304
2011103S13125 2011 22 SI WA ERROL 2011-04-17 18:00:00 TS -9.90000 124.600 main 0 0 O_____________ jtwc_sh SH212011 -9.90000 124.600 TS 35 996 0 30 30 30 30 1009 135 20 4 300
2011103S13125 2011 22 SI WA ERROL 2011-04-17 21:00:00 TS -9.79250 124.407 main 0 0 P_____________ SH212011 -9.79250 124.407 TS 32 998 -1 1009 127 20 4 297
2011103S13125 2011 22 SI WA ERROL 2011-04-18 00:00:00 TS -9.70000 124.200 main 0 0 O_____________ jtwc_sh SH212011 -9.70000 124.200 TD 30 1000 -1 1009 120 20 4 291
2011103S13125 2011 22 SI WA ERROL 2011-04-18 03:00:00 TS -9.64002 123.998 main 0 0 P_____________ SH212011 -9.64002 123.998 TD 27 1002 -1 4 284
2011103S13125 2011 22 SI WA ERROL 2011-04-18 06:00:00 TS -9.60000 123.800 main 0 O_____________ jtwc_sh SH212011 -9.60000 123.800 TD 25 1004 -1 4 282

About IBTrACS Database

This database is a web-friendly format of International Best Track Archive for Climate Stewardship (IBTrACS), a global best track data archive curated by NOAA dating back to 1842.

Updated: 2022-01-14